Time;durP1;ratioP1;P1;durP2;ratioP2;P2;SDS_P1;SDS_P2;PMS_P1;PMS_P2;Temp;Humidity;BMP_temperature;BMP_pressure;BME280_temperature;BME280_humidity;BME280_pressure;Samples;Min_cycle;Max_cycle;Signal;HPM_P1;HPM_P2
2021/12/24 00:01:13;;;;;;;43.80;26.80;;;3.10;99.90;;;;;;5085202;28;20185;-53
2021/12/24 00:03:39;;;;;;;41.17;26.65;;;3.10;99.90;;;;;;5078982;28;20267;-52
2021/12/24 00:06:05;;;;;;;40.47;24.65;;;3.20;99.90;;;;;;5082391;28;20303;-52
2021/12/24 00:08:31;;;;;;;40.75;25.83;;;3.30;99.90;;;;;;5078247;28;20242;-52
2021/12/24 00:11:00;;;;;;;37.97;23.60;;;3.40;99.90;;;;;;5088251;28;20663;-52
2021/12/24 00:13:28;;;;;;;43.63;26.58;;;3.40;99.90;;;;;;5077269;28;21073;-50
2021/12/24 00:16:04;;;;;;;40.15;25.02;;;3.50;99.90;;;;;;5077792;28;20624;-53
2021/12/24 00:18:45;;;;;;;39.85;24.63;;;3.50;99.90;;;;;;5063631;28;20231;-53
2021/12/24 00:37:45;;;;;;;38.85;22.33;;;3.90;99.90;;;;;;5076894;28;20701;-50
2021/12/24 00:42:44;;;;;;;33.33;23.27;;;4.10;99.90;;;;;;5073636;28;20212;-52
2021/12/24 00:45:12;;;;;;;34.60;23.25;;;4.10;99.90;;;;;;5078979;28;20178;-50
2021/12/24 00:47:38;;;;;;;32.75;21.45;;;4.30;99.90;;;;;;5072805;28;20556;-49
2021/12/24 00:50:08;;;;;;;32.93;20.30;;;4.30;99.90;;;;;;5072040;28;20186;-54
2021/12/24 00:52:46;;;;;;;31.15;20.73;;;4.40;99.90;;;;;;5067753;28;20177;-53
2021/12/24 00:55:13;;;;;;;32.20;19.92;;;4.50;99.90;;;;;;5080067;28;20204;-51
2021/12/24 00:57:43;;;;;;;31.40;20.95;;;4.60;99.90;;;;;;5083308;28;20196;-53
2021/12/24 01:00:24;;;;;;;26.75;19.05;;;4.70;99.90;;;;;;5076723;28;20190;-51
2021/12/24 01:02:51;;;;;;;32.08;20.23;;;4.70;99.90;;;;;;5072101;28;20973;-53
2021/12/24 01:05:19;;;;;;;35.40;21.83;;;4.70;99.90;;;;;;5075736;28;20196;-55
2021/12/24 01:07:45;;;;;;;36.58;23.83;;;4.70;99.90;;;;;;5081093;28;20184;-50
2021/12/24 01:10:13;;;;;;;33.63;21.10;;;4.60;99.90;;;;;;5074350;28;20185;-51
2021/12/24 01:12:38;;;;;;;40.20;24.83;;;4.60;99.90;;;;;;5066023;28;20178;-50
2021/12/24 01:15:07;;;;;;;33.63;22.27;;;4.60;99.90;;;;;;5075930;28;20280;-53
2021/12/24 01:17:49;;;;;;;34.22;23.10;;;4.50;99.90;;;;;;5077496;28;20221;-58
2021/12/24 01:20:45;;;;;;;37.38;23.17;;;4.50;99.90;;;;;;5083528;28;20181;-49
2021/12/24 01:23:29;;;;;;;36.92;23.25;;;4.50;99.90;;;;;;5065553;28;20559;-52
2021/12/24 01:26:06;;;;;;;33.55;23.38;;;4.50;99.90;;;;;;5068450;28;20186;-52
2021/12/24 01:42:45;;;;;;;37.42;24.80;;;4.10;99.90;;;;;;5027598;28;20609;-57
2021/12/24 01:45:20;;;;;;;44.45;27.38;;;4.10;99.90;;;;;;5070659;28;20177;-58
2021/12/24 01:47:47;;;;;;;45.10;27.15;;;4.10;99.90;;;;;;5071787;28;20696;-53
2021/12/24 01:50:13;;;;;;;42.38;26.55;;;4.10;99.90;;;;;;5067389;28;20188;-53
2021/12/24 01:52:40;;;;;;;44.63;27.70;;;4.10;99.90;;;;;;5071709;28;20250;-54
2021/12/24 01:55:07;;;;;;;41.47;24.90;;;4.10;99.90;;;;;;5076951;28;20208;-55
2021/12/24 01:57:32;;;;;;;39.92;26.05;;;4.10;99.90;;;;;;5075913;28;20193;-55
2021/12/24 01:59:59;;;;;;;44.57;26.70;;;4.10;99.90;;;;;;5074330;28;20177;-52
2021/12/24 02:02:25;;;;;;;46.10;26.60;;;4.10;99.90;;;;;;5071697;28;20261;-54
2021/12/24 02:04:50;;;;;;;43.33;25.77;;;4.10;99.90;;;;;;5073389;28;20268;-52
2021/12/24 02:07:16;;;;;;;34.10;21.10;;;4.10;99.90;;;;;;5067800;28;20195;-52
2021/12/24 02:09:41;;;;;;;30.33;19.13;;;4.20;99.90;;;;;;5067797;28;20192;-52
2021/12/24 02:12:09;;;;;;;30.10;20.10;;;4.30;99.90;;;;;;5068529;28;20190;-55
2021/12/24 02:14:37;;;;;;;20.90;14.50;;;4.50;99.90;;;;;;5061972;28;20208;-56
2021/12/24 02:30:35;;;;;;;10.48;8.45;;;6.80;99.90;;;;;;5069436;28;20192;-52
2021/12/24 02:33:03;;;;;;;10.03;8.00;;;6.90;99.90;;;;;;5061948;28;21753;-54
2021/12/24 02:35:29;;;;;;;9.97;7.60;;;7.10;99.90;;;;;;5073842;28;20435;-51
2021/12/24 02:37:54;;;;;;;10.00;7.70;;;7.20;99.90;;;;;;5067087;28;20448;-53
2021/12/24 02:40:20;;;;;;;10.00;7.87;;;7.20;99.90;;;;;;5072122;28;20428;-50
2021/12/24 02:42:51;;;;;;;9.47;7.53;;;7.20;99.90;;;;;;5069647;28;20181;-53
2021/12/24 02:45:18;;;;;;;11.00;7.78;;;7.30;99.90;;;;;;5074997;28;20496;-52
2021/12/24 02:48:08;;;;;;;7.33;6.60;;;7.30;99.90;;;;;;5056244;28;20174;-52
2021/12/24 02:56:01;;;;;;;7.63;6.03;;;7.30;99.90;;;;;;5072537;28;20512;-53
2021/12/24 02:58:26;;;;;;;7.53;6.30;;;7.40;99.90;;;;;;5078640;28;20435;-54
2021/12/24 03:00:52;;;;;;;6.20;5.20;;;7.40;99.90;;;;;;5072760;28;21169;-59
2021/12/24 03:03:18;;;;;;;6.10;5.20;;;7.40;99.90;;;;;;5079182;28;20189;-51
2021/12/24 03:05:44;;;;;;;6.33;5.30;;;7.40;99.90;;;;;;5072881;28;20447;-49
2021/12/24 03:08:09;;;;;;;6.33;5.47;;;7.30;99.90;;;;;;5082792;28;20180;-50
2021/12/24 03:10:36;;;;;;;6.43;5.00;;;7.30;99.90;;;;;;5074706;28;20200;-52
2021/12/24 03:13:03;;;;;;;5.90;5.10;;;7.40;99.90;;;;;;5071498;28;20181;-55
2021/12/24 03:15:29;;;;;;;6.20;5.20;;;7.40;99.90;;;;;;5055609;28;20432;-52
2021/12/24 03:17:58;;;;;;;6.30;5.00;;;7.40;99.90;;;;;;5076210;28;20525;-52
2021/12/24 03:20:24;;;;;;;6.35;4.75;;;7.40;99.90;;;;;;5065076;28;20239;-56
2021/12/24 03:25:16;;;;;;;6.17;5.47;;;7.40;99.90;;;;;;5085188;28;20445;-53
2021/12/24 03:27:42;;;;;;;5.80;5.10;;;7.40;99.90;;;;;;5078296;28;20449;-52
2021/12/24 03:30:08;;;;;;;7.40;5.50;;;7.30;99.90;;;;;;5082840;28;20936;-55
2021/12/24 03:32:34;;;;;;;6.88;4.88;;;7.40;99.90;;;;;;5067354;28;20184;-51
2021/12/24 03:34:59;;;;;;;4.87;4.47;;;7.40;99.90;;;;;;5079016;28;20214;-52
2021/12/24 03:37:25;;;;;;;5.23;4.70;;;7.40;99.90;;;;;;5071454;28;20182;-54
2021/12/24 03:39:51;;;;;;;4.93;4.33;;;7.40;99.90;;;;;;5072381;28;20190;-53
2021/12/24 03:42:16;;;;;;;6.07;4.03;;;7.40;99.90;;;;;;5075874;28;20176;-50
2021/12/24 03:44:46;;;;;;;4.83;4.40;;;7.40;99.90;;;;;;5075583;28;20191;-54
2021/12/24 03:47:18;;;;;;;4.40;4.00;;;7.40;99.90;;;;;;5078648;28;20186;-49
2021/12/24 03:54:57;;;;;;;4.40;4.00;;;7.50;99.90;;;;;;5065373;28;20630;-54
2021/12/24 03:57:29;;;;;;;5.35;4.13;;;7.40;99.90;;;;;;5080958;28;20173;-51
2021/12/24 03:59:57;;;;;;;4.10;3.70;;;7.50;99.90;;;;;;5077940;28;20185;-53
2021/12/24 04:02:23;;;;;;;3.93;3.53;;;7.50;99.90;;;;;;5065324;28;21001;-53
2021/12/24 04:04:49;;;;;;;4.30;3.60;;;7.40;99.90;;;;;;5070517;28;20436;-52
2021/12/24 04:07:15;;;;;;;4.00;3.63;;;7.50;99.90;;;;;;5069613;28;20447;-53
2021/12/24 04:12:34;;;;;;;3.83;3.43;;;7.50;99.90;;;;;;5045880;28;20572;-51
2021/12/24 04:15:00;;;;;;;3.23;2.93;;;7.50;99.90;;;;;;5062850;28;20463;-52
2021/12/24 04:17:26;;;;;;;3.20;2.90;;;7.50;99.90;;;;;;5062576;28;20475;-50
2021/12/24 04:25:21;;;;;;;3.20;2.90;;;7.60;99.90;;;;;;5066246;28;20477;-53
2021/12/24 04:27:46;;;;;;;2.83;2.63;;;7.60;99.90;;;;;;5069215;28;20432;-55
2021/12/24 04:30:17;;;;;;;7.57;3.17;;;7.50;99.90;;;;;;5068887;28;20479;-55
2021/12/24 04:32:54;;;;;;;3.70;2.67;;;7.50;99.90;;;;;;5062930;28;20901;-53
2021/12/24 04:35:45;;;;;;;3.57;2.70;;;7.50;99.90;;;;;;5073553;28;20532;-52
2021/12/24 04:51:33;;;;;;;2.60;2.40;;;7.60;99.90;;;;;;5064137;28;20485;-51
2021/12/24 05:02:27;;;;;;;2.20;2.00;;;7.60;99.90;;;;;;5068983;28;20443;-53
2021/12/24 05:05:07;;;;;;;2.10;1.90;;;7.70;99.90;;;;;;5062045;28;20432;-53
2021/12/24 05:10:11;;;;;;;2.23;2.03;;;7.70;99.90;;;;;;5058911;28;20475;-54
2021/12/24 05:12:36;;;;;;;2.30;2.10;;;7.70;99.90;;;;;;5070079;28;20478;-52
2021/12/24 05:15:10;;;;;;;8.00;7.30;;;7.80;99.90;;;;;;5067738;28;20244;-50
2021/12/24 05:18:08;;;;;;;2.60;2.40;;;7.80;99.90;;;;;;5059504;28;20234;-54
2021/12/24 05:23:18;;;;;;;3.03;2.73;;;7.80;99.90;;;;;;5055765;28;20536;-50
2021/12/24 05:25:45;;;;;;;3.30;3.00;;;7.70;99.90;;;;;;5050329;28;20512;-56
2021/12/24 05:28:12;;;;;;;3.10;2.80;;;7.80;99.90;;;;;;5049528;28;20231;-53
2021/12/24 05:30:38;;;;;;;3.53;3.10;;;7.80;99.90;;;;;;5057379;28;20990;-54
2021/12/24 05:33:04;;;;;;;3.40;3.10;;;7.90;99.90;;;;;;5053924;28;20425;-53
2021/12/24 05:35:30;;;;;;;3.50;3.20;;;7.90;99.90;;;;;;5054998;28;20435;-50
2021/12/24 05:37:55;;;;;;;3.37;3.07;;;7.90;99.90;;;;;;5037690;28;20497;-53
2021/12/24 05:40:21;;;;;;;3.40;3.10;;;7.90;99.90;;;;;;5039940;28;20190;-53
2021/12/24 05:42:47;;;;;;;3.63;3.33;;;7.90;99.90;;;;;;5040308;28;20269;-54
2021/12/24 05:45:12;;;;;;;4.70;4.20;;;7.90;99.90;;;;;;5040255;28;20186;-52
2021/12/24 05:47:38;;;;;;;4.97;4.47;;;7.90;99.90;;;;;;5036058;28;20205;-54
2021/12/24 05:50:05;;;;;;;5.37;4.87;;;7.90;99.90;;;;;;5039876;28;20183;-53
2021/12/24 05:52:32;;;;;;;6.03;4.97;;;7.90;99.90;;;;;;5040003;28;20200;-51
2021/12/24 05:54:58;;;;;;;5.10;4.60;;;8.00;99.90;;;;;;5037882;28;20499;-55
2021/12/24 05:57:26;;;;;;;6.40;5.37;;;8.00;99.90;;;;;;5039583;28;20429;-54
2021/12/24 05:59:52;;;;;;;6.30;5.60;;;8.00;99.90;;;;;;5040664;28;20440;-52
2021/12/24 06:02:17;;;;;;;6.20;5.60;;;8.10;99.90;;;;;;5038358;28;20547;-52
2021/12/24 06:04:43;;;;;;;5.90;5.30;;;8.00;99.90;;;;;;5039508;28;20186;-51
2021/12/24 06:07:08;;;;;;;6.07;5.47;;;8.00;99.90;;;;;;5039861;28;20190;-49
2021/12/24 06:09:34;;;;;;;6.97;6.23;;;8.00;99.90;;;;;;5039440;28;20203;-50
2021/12/24 06:11:59;;;;;;;7.50;6.50;;;8.10;99.90;;;;;;5039590;28;20845;-52
2021/12/24 06:14:25;;;;;;;7.57;6.73;;;8.10;99.90;;;;;;5037399;28;20204;-53
2021/12/24 06:17:00;;;;;;;7.30;6.50;;;8.10;99.90;;;;;;5039270;28;20182;-53
2021/12/24 06:19:26;;;;;;;6.23;5.20;;;8.10;99.90;;;;;;5040129;28;20178;-51
2021/12/24 06:22:01;;;;;;;6.23;5.63;;;8.20;99.90;;;;;;5037730;28;20432;-50
2021/12/24 06:24:27;;;;;;;7.40;6.20;;;8.10;99.90;;;;;;5038818;28;20432;-55
2021/12/24 06:26:52;;;;;;;6.30;5.70;;;8.20;99.90;;;;;;5038988;28;20462;-54
2021/12/24 06:29:18;;;;;;;6.30;5.50;;;8.20;99.90;;;;;;5037698;28;20546;-52
2021/12/24 06:31:44;;;;;;;7.17;6.23;;;8.20;99.90;;;;;;5038898;28;20593;-52
2021/12/24 06:34:09;;;;;;;7.60;6.27;;;8.30;99.90;;;;;;5038536;28;20961;-51
2021/12/24 06:36:39;;;;;;;6.90;6.20;;;8.40;99.90;;;;;;5043169;28;20269;-54
2021/12/24 06:39:05;;;;;;;6.37;5.63;;;8.30;99.90;;;;;;5041460;28;20197;-52
2021/12/24 06:41:31;;;;;;;8.10;6.27;;;8.30;99.90;;;;;;5041742;28;20428;-51
2021/12/24 06:43:58;;;;;;;9.10;6.50;;;8.30;99.90;;;;;;5042232;28;20450;-51
2021/12/24 06:46:24;;;;;;;7.30;5.80;;;8.30;99.90;;;;;;5025282;28;20476;-54
2021/12/24 06:48:55;;;;;;;10.60;6.43;;;8.40;99.90;;;;;;5041735;28;21273;-50
2021/12/24 06:51:20;;;;;;;7.20;6.50;;;8.40;99.90;;;;;;5043725;28;20577;-52
2021/12/24 06:53:46;;;;;;;7.87;7.00;;;8.40;99.90;;;;;;5043519;28;20955;-52
2021/12/24 06:56:12;;;;;;;7.57;6.73;;;8.50;99.90;;;;;;5043430;28;20182;-53
2021/12/24 06:58:38;;;;;;;7.90;6.80;;;8.50;99.90;;;;;;5044371;28;20447;-52
2021/12/24 07:01:03;;;;;;;8.07;6.70;;;8.60;99.90;;;;;;5042829;28;20193;-50
2021/12/24 07:03:29;;;;;;;8.07;7.20;;;8.60;99.90;;;;;;5042682;28;20448;-52
2021/12/24 07:05:55;;;;;;;8.77;7.13;;;8.60;99.90;;;;;;5040648;28;20436;-49
2021/12/24 07:08:20;;;;;;;8.77;6.97;;;8.60;99.90;;;;;;5041931;28;20240;-50
2021/12/24 07:10:46;;;;;;;8.17;7.03;;;8.60;99.90;;;;;;5043486;28;20216;-50
2021/12/24 07:13:12;;;;;;;7.97;6.80;;;8.60;99.90;;;;;;5041438;28;20277;-55
2021/12/24 07:15:37;;;;;;;8.27;6.67;;;8.60;99.90;;;;;;5042957;28;20554;-50
2021/12/24 07:18:03;;;;;;;8.50;6.80;;;8.70;99.90;;;;;;5054606;28;20711;-50
2021/12/24 07:20:28;;;;;;;8.53;7.10;;;8.70;99.90;;;;;;5043824;28;20193;-50
2021/12/24 07:22:55;;;;;;;8.57;6.83;;;8.70;99.90;;;;;;5063447;28;20209;-62
2021/12/24 07:25:21;;;;;;;7.33;6.40;;;8.70;99.90;;;;;;5061973;28;20458;-61
2021/12/24 07:27:47;;;;;;;8.40;6.93;;;8.70;99.90;;;;;;5061871;28;20190;-61
2021/12/24 07:30:12;;;;;;;7.13;6.20;;;8.70;99.90;;;;;;5062338;28;20439;-61
2021/12/24 07:32:40;;;;;;;9.03;6.83;;;8.70;99.90;;;;;;5061437;28;20305;-61
2021/12/24 07:35:07;;;;;;;7.20;6.50;;;8.70;99.90;;;;;;5062363;28;20797;-62
2021/12/24 07:37:32;;;;;;;7.40;6.67;;;8.80;99.90;;;;;;5061999;28;20432;-62
2021/12/24 07:39:58;;;;;;;9.20;6.83;;;8.80;99.90;;;;;;5063169;28;21162;-62
2021/12/24 07:42:26;;;;;;;8.47;6.77;;;8.70;99.90;;;;;;5061856;28;20209;-62
2021/12/24 07:44:51;;;;;;;8.53;7.63;;;8.70;99.90;;;;;;5061524;28;20623;-62
2021/12/24 07:47:27;;;;;;;6.73;6.03;;;8.80;99.90;;;;;;5062488;28;20454;-61
2021/12/24 07:50:05;;;;;;;7.90;6.40;;;8.80;99.90;;;;;;5064078;28;20177;-61
2021/12/24 07:52:31;;;;;;;7.67;5.90;;;8.80;99.90;;;;;;5068017;28;20435;-61
2021/12/24 07:54:57;;;;;;;7.43;6.03;;;8.90;99.90;;;;;;5070627;28;20983;-61
2021/12/24 07:57:24;;;;;;;7.80;6.67;;;8.90;99.90;;;;;;5069940;28;20455;-61
2021/12/24 07:59:50;;;;;;;6.50;5.80;;;8.90;99.90;;;;;;5071744;28;20416;-60
2021/12/24 08:02:18;;;;;;;8.40;5.70;;;9.00;99.90;;;;;;5071396;28;20737;-59
2021/12/24 08:04:45;;;;;;;7.10;5.50;;;9.00;99.90;;;;;;5071561;28;20830;-60
2021/12/24 08:07:12;;;;;;;6.97;5.63;;;9.10;99.90;;;;;;5071526;28;20420;-61
2021/12/24 08:09:38;;;;;;;6.17;5.33;;;9.10;99.90;;;;;;5070648;28;20897;-60
2021/12/24 08:12:09;;;;;;;6.07;5.33;;;9.10;99.90;;;;;;5069240;28;20412;-60
2021/12/24 08:14:35;;;;;;;6.30;5.27;;;9.10;99.90;;;;;;5066408;28;20470;-60
2021/12/24 08:17:03;;;;;;;5.73;5.13;;;9.10;99.90;;;;;;5069206;28;20495;-60
2021/12/24 08:19:29;;;;;;;5.70;5.00;;;9.10;99.90;;;;;;5067204;28;21193;-61
2021/12/24 08:21:56;;;;;;;5.90;5.13;;;9.20;99.90;;;;;;5060687;28;20436;-60
2021/12/24 08:24:21;;;;;;;8.03;5.17;;;9.20;99.90;;;;;;5067351;28;20217;-60
2021/12/24 08:26:48;;;;;;;5.10;4.60;;;9.20;99.90;;;;;;5070952;28;20452;-60
2021/12/24 08:29:13;;;;;;;5.57;4.60;;;9.30;99.90;;;;;;5070715;28;20188;-60
2021/12/24 08:31:39;;;;;;;5.20;4.60;;;9.30;99.90;;;;;;5068944;28;20437;-60
2021/12/24 08:34:05;;;;;;;4.90;4.40;;;9.30;99.90;;;;;;5064264;28;20474;-60
2021/12/24 08:36:31;;;;;;;5.50;4.70;;;9.40;99.90;;;;;;5046895;28;20213;-60
2021/12/24 08:38:57;;;;;;;5.60;4.40;;;9.50;99.90;;;;;;5058140;28;20558;-60
2021/12/24 08:41:24;;;;;;;4.77;4.27;;;9.50;99.90;;;;;;5069322;28;20416;-61
2021/12/24 08:43:49;;;;;;;4.70;4.30;;;9.60;99.90;;;;;;5069731;28;20193;-60
2021/12/24 08:46:15;;;;;;;4.63;3.73;;;9.70;99.90;;;;;;5067100;28;20438;-60
2021/12/24 08:48:40;;;;;;;4.67;4.27;;;9.70;99.90;;;;;;5056278;28;20698;-61
2021/12/24 08:51:06;;;;;;;5.03;4.33;;;9.80;99.90;;;;;;5070082;28;20190;-61
2021/12/24 08:53:32;;;;;;;4.40;4.00;;;9.90;99.90;;;;;;5068326;28;20216;-60
2021/12/24 08:55:57;;;;;;;4.17;3.77;;;9.90;99.90;;;;;;5067938;28;20229;-60
2021/12/24 08:58:23;;;;;;;5.00;4.07;;;10.00;99.90;;;;;;5068976;28;20181;-61
2021/12/24 09:00:49;;;;;;;4.57;3.90;;;10.10;99.90;;;;;;5070092;28;20185;-61
2021/12/24 09:03:15;;;;;;;3.80;3.50;;;10.20;99.90;;;;;;5068354;28;20420;-60
2021/12/24 09:05:41;;;;;;;3.80;3.50;;;10.20;99.90;;;;;;5067332;28;20178;-60
2021/12/24 09:08:06;;;;;;;4.20;3.80;;;10.30;99.90;;;;;;5062275;28;20419;-59
2021/12/24 09:10:33;;;;;;;3.40;3.10;;;10.20;99.90;;;;;;5064138;28;20190;-60
2021/12/24 09:13:00;;;;;;;4.47;3.73;;;10.30;99.90;;;;;;5044082;28;20193;-51
2021/12/24 09:15:29;;;;;;;4.03;3.63;;;10.30;99.90;;;;;;5068785;28;20605;-53
2021/12/24 09:17:59;;;;;;;3.83;3.43;;;10.30;99.90;;;;;;5077814;28;20466;-56
2021/12/24 09:20:30;;;;;;;4.00;3.23;;;10.40;99.90;;;;;;5070992;28;20428;-53
2021/12/24 09:22:56;;;;;;;4.10;3.70;;;10.40;99.90;;;;;;5066916;28;20431;-52
2021/12/24 09:25:23;;;;;;;3.60;3.30;;;10.40;99.90;;;;;;5064658;28;20439;-54
2021/12/24 09:27:50;;;;;;;3.40;3.10;;;10.30;99.90;;;;;;5068196;28;20507;-50
2021/12/24 09:30:16;;;;;;;3.80;3.37;;;10.40;99.90;;;;;;5065365;28;20824;-55
2021/12/24 09:32:41;;;;;;;4.40;3.20;;;10.40;99.90;;;;;;5066370;28;20431;-53
2021/12/24 09:35:08;;;;;;;3.63;3.20;;;10.50;99.90;;;;;;5057714;28;20459;-51
2021/12/24 09:37:34;;;;;;;3.87;3.47;;;10.50;99.90;;;;;;5065561;28;20432;-54
2021/12/24 09:40:00;;;;;;;3.50;3.00;;;10.60;99.90;;;;;;5061646;28;20724;-50
2021/12/24 09:42:27;;;;;;;3.40;3.10;;;10.60;99.90;;;;;;5063697;28;20575;-54
2021/12/24 09:44:53;;;;;;;3.40;2.90;;;10.80;99.90;;;;;;5064869;28;20919;-55
2021/12/24 09:47:22;;;;;;;3.57;3.10;;;11.10;99.90;;;;;;5072530;28;20188;-51
2021/12/24 09:49:48;;;;;;;3.10;2.83;;;11.30;99.90;;;;;;5054766;28;20826;-53
2021/12/24 09:52:14;;;;;;;3.57;3.27;;;11.30;99.90;;;;;;5053676;28;20447;-53
2021/12/24 09:54:43;;;;;;;3.57;3.10;;;11.30;99.90;;;;;;5063303;28;20209;-55
2021/12/24 09:57:09;;;;;;;3.60;3.00;;;11.40;99.90;;;;;;5058676;28;20179;-55
2021/12/24 09:59:36;;;;;;;3.47;3.17;;;11.50;99.90;;;;;;5056657;28;20481;-55
2021/12/24 10:02:03;;;;;;;3.10;2.80;;;11.40;99.90;;;;;;5053099;28;20436;-55
2021/12/24 10:04:31;;;;;;;3.10;2.73;;;11.30;99.90;;;;;;5055984;28;20781;-50
2021/12/24 10:07:06;;;;;;;3.20;2.90;;;11.20;99.90;;;;;;5063006;28;20442;-52
2021/12/24 10:09:41;;;;;;;3.13;2.83;;;11.10;99.90;;;;;;5059777;28;20447;-52
2021/12/24 10:12:17;;;;;;;3.30;2.50;;;11.10;99.90;;;;;;5065618;28;20443;-53
2021/12/24 10:14:50;;;;;;;2.97;2.67;;;11.10;99.90;;;;;;5062586;28;20490;-50
2021/12/24 10:17:24;;;;;;;3.93;3.33;;;11.20;99.90;;;;;;5060154;28;20475;-51
2021/12/24 10:19:54;;;;;;;3.33;3.03;;;11.30;99.90;;;;;;5065304;28;20493;-53
2021/12/24 10:22:20;;;;;;;3.20;2.70;;;11.50;99.90;;;;;;5066075;28;21089;-63
2021/12/24 10:25:12;;;;;;;2.70;2.50;;;11.50;99.90;;;;;;5063838;28;20443;-63
2021/12/24 10:27:38;;;;;;;2.67;2.47;;;11.90;99.90;;;;;;5063681;28;20796;-62
2021/12/24 10:30:26;;;;;;;3.50;3.20;;;12.60;99.90;;;;;;5067170;28;20804;-61
2021/12/24 10:32:55;;;;;;;4.03;3.63;;;12.70;99.90;;;;;;5064971;28;20467;-65
2021/12/24 10:35:23;;;;;;;3.30;3.00;;;12.70;99.90;;;;;;5052405;28;20576;-65
2021/12/24 10:38:11;;;;;;;3.30;3.00;;;12.50;99.90;;;;;;5050275;28;20433;-65
2021/12/24 10:40:47;;;;;;;3.57;3.23;;;12.70;99.90;;;;;;5060352;28;20428;-65
2021/12/24 10:43:24;;;;;;;3.50;3.30;;;13.10;99.90;;;;;;5057617;28;21114;-63
2021/12/24 10:46:08;;;;;;;3.30;3.00;;;13.00;99.90;;;;;;5053321;28;20434;-63
2021/12/24 10:48:33;;;;;;;3.17;2.97;;;13.10;99.90;;;;;;5060485;28;20518;-63
2021/12/24 10:51:18;;;;;;;3.50;2.80;;;13.10;99.90;;;;;;5058507;28;20453;-63
2021/12/24 10:54:05;;;;;;;3.10;2.90;;;13.00;99.90;;;;;;5053507;28;20620;-63
2021/12/24 10:56:31;;;;;;;3.30;3.00;;;12.80;99.90;;;;;;5047900;28;20439;-62
2021/12/24 10:58:57;;;;;;;3.80;3.47;;;12.60;99.90;;;;;;5063514;28;20806;-62
2021/12/24 11:01:22;;;;;;;3.23;3.00;;;12.60;99.90;;;;;;5063435;28;20192;-64
2021/12/24 11:03:49;;;;;;;3.43;3.23;;;12.80;99.90;;;;;;5064718;28;20438;-62
2021/12/24 11:06:15;;;;;;;2.70;2.50;;;12.90;99.90;;;;;;5062858;28;20212;-63
2021/12/24 11:08:42;;;;;;;2.93;2.73;;;13.10;99.90;;;;;;5065739;28;20443;-64
2021/12/24 11:11:11;;;;;;;3.60;3.30;;;13.10;99.90;;;;;;5065912;28;20436;-64
2021/12/24 11:13:39;;;;;;;3.53;3.23;;;12.90;99.90;;;;;;5065068;28;20460;-64
2021/12/24 11:16:07;;;;;;;3.60;3.30;;;12.70;99.90;;;;;;5055576;28;20913;-65
2021/12/24 11:18:38;;;;;;;3.60;3.30;;;12.70;99.90;;;;;;5060352;28;20475;-64
2021/12/24 11:21:10;;;;;;;3.40;3.10;;;12.70;99.90;;;;;;5058174;28;21078;-64
2021/12/24 11:23:38;;;;;;;3.47;3.17;;;12.40;99.90;;;;;;5055292;28;20433;-64
2021/12/24 11:26:09;;;;;;;3.40;3.10;;;12.30;99.90;;;;;;5063319;28;21145;-63
2021/12/24 11:28:36;;;;;;;3.23;2.93;;;12.00;99.90;;;;;;5062735;28;20443;-64
2021/12/24 11:31:05;;;;;;;3.60;3.30;;;11.90;99.90;;;;;;5028716;28;20439;-58
2021/12/24 11:33:33;;;;;;;3.20;2.90;;;11.90;99.90;;;;;;5063511;28;20795;-66
2021/12/24 11:36:00;;;;;;;3.90;3.53;;;11.70;99.90;;;;;;5060932;28;20446;-63
2021/12/24 11:38:33;;;;;;;3.00;2.80;;;11.70;99.90;;;;;;5066108;28;20431;-61
2021/12/24 11:41:01;;;;;;;4.10;3.70;;;11.60;99.90;;;;;;5064523;28;20436;-60
2021/12/24 11:43:31;;;;;;;3.90;3.60;;;11.40;99.90;;;;;;5059230;28;20436;-63
2021/12/24 11:45:59;;;;;;;3.30;3.00;;;11.40;99.90;;;;;;5067059;28;20861;-61
2021/12/24 11:48:27;;;;;;;3.50;3.20;;;11.40;99.90;;;;;;5058006;28;20803;-61
2021/12/24 11:50:54;;;;;;;3.70;3.40;;;11.30;99.90;;;;;;5069314;28;20436;-64
2021/12/24 11:53:20;;;;;;;3.60;3.30;;;11.30;99.90;;;;;;5063021;28;20830;-60
2021/12/24 11:55:49;;;;;;;3.23;2.93;;;11.40;99.90;;;;;;5063907;28;20526;-62
2021/12/24 11:58:23;;;;;;;4.00;3.27;;;11.30;99.90;;;;;;5062975;28;20785;-61
2021/12/24 12:00:53;;;;;;;3.60;3.30;;;11.20;99.90;;;;;;5059976;28;20465;-60
2021/12/24 12:03:32;;;;;;;3.60;3.00;;;11.20;99.90;;;;;;5068886;28;20448;-64
2021/12/24 12:05:57;;;;;;;3.90;3.60;;;11.20;99.90;;;;;;5070056;28;21047;-64
2021/12/24 12:08:26;;;;;;;4.50;4.10;;;11.20;99.90;;;;;;5071001;28;20432;-64
2021/12/24 12:11:15;;;;;;;3.20;2.90;;;11.20;99.90;;;;;;5075039;28;20185;-63
2021/12/24 12:13:41;;;;;;;4.10;3.70;;;11.30;99.90;;;;;;5049649;28;20468;-64
2021/12/24 12:16:08;;;;;;;3.70;3.40;;;11.30;99.90;;;;;;5076001;28;20938;-65
2021/12/24 12:18:47;;;;;;;3.70;3.40;;;11.40;99.90;;;;;;5073000;28;20256;-64
2021/12/24 12:21:34;;;;;;;4.80;3.70;;;11.50;99.90;;;;;;5078157;28;20436;-63
2021/12/24 12:26:42;;;;;;;4.00;3.70;;;11.40;99.90;;;;;;5080110;28;20447;-63
2021/12/24 12:29:25;;;;;;;4.53;3.73;;;11.30;99.90;;;;;;5074532;28;20480;-64
2021/12/24 12:32:12;;;;;;;4.40;3.50;;;11.30;99.90;;;;;;5068188;28;20493;-63
2021/12/24 12:34:44;;;;;;;3.70;3.40;;;11.30;99.90;;;;;;5075441;28;20467;-63
2021/12/24 12:37:20;;;;;;;5.80;3.63;;;11.40;99.90;;;;;;5080835;28;20424;-64
2021/12/24 12:39:49;;;;;;;3.97;3.67;;;11.30;99.90;;;;;;5075883;28;20930;-63
2021/12/24 12:42:17;;;;;;;4.03;3.60;;;11.20;99.90;;;;;;5073162;28;20432;-63
2021/12/24 12:44:49;;;;;;;4.33;3.93;;;11.10;99.90;;;;;;5065656;28;20526;-64
2021/12/24 12:47:28;;;;;;;3.63;3.33;;;11.20;99.90;;;;;;5062099;28;20582;-64
2021/12/24 12:50:18;;;;;;;4.27;3.87;;;11.30;99.90;;;;;;5070239;28;21176;-64
2021/12/24 12:52:45;;;;;;;3.60;3.30;;;11.30;99.90;;;;;;5071189;28;20435;-64
2021/12/24 12:55:33;;;;;;;3.60;3.30;;;11.40;99.90;;;;;;5074585;28;20467;-64
2021/12/24 12:58:22;;;;;;;3.40;3.10;;;11.40;99.90;;;;;;5069532;28;20990;-64
2021/12/24 13:01:17;;;;;;;3.93;3.63;;;11.60;99.90;;;;;;5064573;28;20490;-64
2021/12/24 13:03:55;;;;;;;4.87;4.27;;;11.60;99.90;;;;;;5058602;28;20437;-62
2021/12/24 13:06:38;;;;;;;4.00;3.67;;;11.60;99.90;;;;;;5052735;28;20527;-61
2021/12/24 13:09:07;;;;;;;3.77;3.47;;;11.60;99.90;;;;;;5055068;28;20893;-61
2021/12/24 13:11:35;;;;;;;3.90;3.60;;;11.70;99.90;;;;;;5050871;28;20428;-65
2021/12/24 13:14:01;;;;;;;4.50;3.90;;;11.60;99.90;;;;;;5064222;28;20466;-62
2021/12/24 13:16:33;;;;;;;4.50;3.90;;;11.50;99.90;;;;;;5063662;28;20799;-62
2021/12/24 13:19:23;;;;;;;4.27;3.97;;;11.40;99.90;;;;;;5058865;28;20444;-64
2021/12/24 13:24:56;;;;;;;3.80;3.50;;;11.30;99.90;;;;;;5062839;28;20441;-61
2021/12/24 13:27:25;;;;;;;4.00;3.60;;;11.20;99.90;;;;;;5066424;28;20844;-62
2021/12/24 13:30:19;;;;;;;4.60;3.80;;;11.20;99.90;;;;;;5073270;28;20448;-64
2021/12/24 13:32:46;;;;;;;4.37;3.97;;;11.20;99.90;;;;;;5074361;28;20439;-63
2021/12/24 13:35:12;;;;;;;4.37;3.97;;;11.10;99.90;;;;;;5075768;28;20463;-63
2021/12/24 13:37:40;;;;;;;4.37;3.97;;;11.20;99.90;;;;;;5080922;28;20450;-63
2021/12/24 13:40:09;;;;;;;5.70;4.07;;;11.10;99.90;;;;;;5073770;28;20511;-62
2021/12/24 13:42:50;;;;;;;5.03;3.70;;;11.10;99.90;;;;;;5074164;28;20531;-62
2021/12/24 13:45:16;;;;;;;4.33;3.87;;;11.00;99.90;;;;;;5072310;28;20851;-61
2021/12/24 13:55:41;;;;;;;4.50;4.10;;;10.90;99.90;;;;;;5065469;28;20536;-60
2021/12/24 13:58:12;;;;;;;5.77;4.40;;;10.90;99.90;;;;;;5060311;28;20454;-62
2021/12/24 14:00:46;;;;;;;5.20;4.20;;;10.90;99.90;;;;;;5055482;28;20443;-64
2021/12/24 14:03:11;;;;;;;4.37;3.80;;;10.90;99.90;;;;;;5051930;28;20623;-60
2021/12/24 14:05:45;;;;;;;5.07;4.43;;;10.90;99.90;;;;;;5053327;28;20434;-62
2021/12/24 14:08:14;;;;;;;4.97;4.47;;;10.90;99.90;;;;;;5059078;28;21208;-61
2021/12/24 14:10:41;;;;;;;4.77;4.33;;;10.90;99.90;;;;;;5062915;28;20446;-64
2021/12/24 14:13:23;;;;;;;4.60;4.20;;;10.90;99.90;;;;;;5070436;28;20502;-62
2021/12/24 14:16:15;;;;;;;5.70;4.80;;;10.90;99.90;;;;;;5062854;28;20438;-64
2021/12/24 14:18:47;;;;;;;4.80;3.87;;;10.90;99.90;;;;;;5060409;28;20484;-64
2021/12/24 14:24:20;;;;;;;5.00;4.23;;;10.70;99.90;;;;;;5068686;28;20435;-64
2021/12/24 14:26:52;;;;;;;4.63;4.00;;;10.70;99.90;;;;;;5068943;28;20518;-64
2021/12/24 14:29:54;;;;;;;4.60;4.10;;;10.70;99.90;;;;;;5061726;28;20428;-63
2021/12/24 14:32:37;;;;;;;3.60;3.30;;;10.60;99.90;;;;;;5044330;28;21171;-64
2021/12/24 14:35:15;;;;;;;4.57;4.17;;;10.50;99.90;;;;;;5057628;28;20957;-63
2021/12/24 14:37:53;;;;;;;5.83;4.30;;;10.40;99.90;;;;;;5066310;28;20971;-61
2021/12/24 14:40:19;;;;;;;3.97;3.63;;;10.30;99.90;;;;;;5050145;28;20490;-63
2021/12/24 14:42:47;;;;;;;4.20;3.80;;;10.20;99.90;;;;;;5066367;28;20444;-66
2021/12/24 14:45:20;;;;;;;4.97;3.90;;;10.20;99.90;;;;;;5075891;28;20908;-63
2021/12/24 14:48:06;;;;;;;4.40;3.90;;;10.30;99.90;;;;;;5074817;28;20485;-65
2021/12/24 14:50:35;;;;;;;4.37;3.87;;;10.20;99.90;;;;;;5073014;28;20527;-65
2021/12/24 14:53:30;;;;;;;5.00;4.30;;;10.20;99.90;;;;;;5067777;28;20515;-65
2021/12/24 14:56:08;;;;;;;4.80;4.00;;;10.10;99.90;;;;;;5060473;28;20455;-63